Airfield :
LOGIN :

Register | Disclaimer

   EN    FR    IT 

 










Legend :    VFR   Marginal VFR   IFR   Intensive IFR   Very Intensive IFR
Visi :
Ceiling :
>= 8 km
>= 3000ft
5 to 8 km
1000 to 3000 ft
1500m to 5 km
500 to 1000 ft
800 to 1500m
200 to 500 ft
< 800m
< 200 ft
Symbols :   Thunderstorms  Fog  Heavy snow  Heavy precipitations  Wind > 20 kt
SIGMETs :     Misc.  Thunderstorms  Icing  Turbulence  Mountain Waves  Volcanic Ashes






- Airport Elevation : 1 ft


EGCK - Caernarfon

CURRENT METAR :
  • 041220Z 27012KT 9999 FEW015 BKN023 BKN043 15/09 Q1022

EXPIRED METARs :
  • 041150Z 27012KT 9999 FEW015 BKN023 BKN040 15/09 Q1022
  • 041120Z 26011KT 9999 BKN028 BKN045 15/10 Q1022
  • 041050Z 26011KT 9999 FEW028 BKN039 15/10 Q1022
  • 041020Z 28012KT 9999 SCT016 BKN040 15/09 Q1022
  • 040950Z 28012KT 9999 BKN025 BKN042 15/10 Q1021

TAF TAF EGCK
Valid from the 04 at 12:00 until the 04 at 21:00 UTC


041057Z 0412/0421 26012KT 9999 SCT040



MET'MAP, your aeronautical weather chart ! - Copyright ORBIFLY December 2007 - Disclaimer

ORBIFLY MET'MAP TEAM :

Programming & Development : Alexandra Zaïnal
Original concept : Baudouin d'Aumeries
Technical & hardware support : Manuel Goepfert
Assistance : Marc-Olivier Méhu




SOURCES & CREDITS :

   NOAA